Time,TemperatureF,DewpointF,PressureIn,WindDirection,WindDirectionDegrees,WindSpeedMPH,WindSpeedGustMPH,Humidity,HourlyPrecipIn,Conditions,Clouds,dailyrainin,SoftwareType,DateUTC
2013-03-19 00:28:00,37.5,37.5,26.54,ENE,78,4.0,4.0,100,0.00,,,-99.99,VWS V12.07,2013-03-19 04:28:00,
2013-03-19 00:58:00,38.0,38.0,26.54,SSE,155,0.0,0.0,100,0.00,,,-99.99,VWS V12.07,2013-03-19 04:58:00,
2013-03-19 01:28:00,35.6,35.6,26.53,SE,131,0.0,0.0,100,0.00,,,-99.99,VWS V12.07,2013-03-19 05:28:00,
2013-03-19 01:58:00,36.5,36.5,26.53,East,86,0.0,0.0,100,0.00,,,-99.99,VWS V12.07,2013-03-19 05:58:00,
2013-03-19 02:28:00,36.5,36.5,26.52,East,87,0.0,1.0,100,0.00,,,-99.99,VWS V12.07,2013-03-19 06:28:00,
2013-03-19 02:58:00,40.8,40.8,26.52,NW,305,0.0,2.0,100,0.00,,,-99.99,VWS V12.07,2013-03-19 06:58:00,
2013-03-19 03:28:00,43.5,43.5,26.53,SW,227,1.0,6.0,100,0.00,,,-99.99,VWS V12.07,2013-03-19 07:28:00,
2013-03-19 03:58:00,44.6,44.6,26.53,SSW,195,3.0,8.0,100,0.00,,,-99.99,VWS V12.07,2013-03-19 07:58:00,
2013-03-19 04:28:00,44.8,44.8,26.52,SW,223,2.0,14.0,100,0.01,,,-99.99,VWS V12.07,2013-03-19 08:28:00,
2013-03-19 04:58:00,44.8,44.8,26.52,SW,214,6.0,12.0,100,0.01,,,-99.99,VWS V12.07,2013-03-19 08:58:00,
2013-03-19 05:28:00,44.2,44.2,26.53,SW,223,3.0,12.0,100,0.00,,,-99.99,VWS V12.07,2013-03-19 09:28:00,
2013-03-19 05:58:00,43.8,43.8,26.54,SW,216,2.0,5.0,100,0.00,,,-99.99,VWS V12.07,2013-03-19 09:58:00,
2013-03-19 06:28:00,42.5,42.5,26.56,SSW,207,8.0,13.0,100,0.00,,,-99.99,VWS V12.07,2013-03-19 10:28:00,
2013-03-19 06:58:00,40.3,40.3,26.58,SSW,207,4.0,21.0,100,0.00,,,-99.99,VWS V12.07,2013-03-19 10:58:00,
2013-03-19 07:28:00,38.8,38.8,26.58,SW,221,8.0,11.0,100,0.00,,,-99.99,VWS V12.07,2013-03-19 11:28:00,
2013-03-19 07:58:00,36.6,36.6,26.61,SW,219,4.0,15.0,100,0.00,,,-99.99,VWS V12.07,2013-03-19 11:58:00,
2013-03-19 08:28:00,34.8,34.8,26.62,SW,231,6.0,11.0,100,0.00,,,-99.99,VWS V12.07,2013-03-19 12:28:00,
2013-03-19 08:58:00,34.5,34.5,26.63,SW,217,4.0,14.0,100,0.00,,,-99.99,VWS V12.07,2013-03-19 12:58:00,
2013-03-19 09:28:00,34.9,34.9,26.63,SW,220,6.0,11.0,100,0.00,,,-99.99,VWS V12.07,2013-03-19 13:28:00,
2013-03-19 09:58:00,36.3,36.3,26.61,WSW,246,2.0,9.0,100,0.00,,,-99.99,VWS V12.07,2013-03-19 13:58:00,
2013-03-19 10:28:00,37.2,33.4,26.61,West,277,4.0,9.0,86,0.00,,,-99.99,VWS V12.07,2013-03-19 14:28:00,
2013-03-19 10:58:00,38.1,33.4,26.61,SW,234,5.0,10.0,83,0.00,,,-99.99,VWS V12.07,2013-03-19 14:58:00,
2013-03-19 11:28:00,39.6,33.0,26.61,SW,223,3.0,18.0,77,0.00,,,-99.99,VWS V12.07,2013-03-19 15:28:00,
2013-03-19 11:58:00,40.6,32.3,26.62,SW,220,14.0,19.0,72,0.00,,,-99.99,VWS V12.07,2013-03-19 15:58:00,
2013-03-19 12:28:00,40.9,31.9,26.63,SW,222,0.0,0.0,70,0.00,,,-99.99,VWS V12.07,2013-03-19 16:28:00,
2013-03-19 12:58:00,41.6,30.0,26.64,WSW,238,0.0,0.0,63,0.00,,,-99.99,VWS V12.07,2013-03-19 16:58:00,
2013-03-19 13:28:00,43.0,30.9,26.62,SW,215,0.0,0.0,62,0.00,,,-99.99,VWS V12.07,2013-03-19 17:28:00,
2013-03-19 13:58:00,44.6,33.2,26.63,SW,230,0.0,0.0,64,0.00,,,-99.99,VWS V12.07,2013-03-19 17:58:00,
2013-03-19 14:28:00,44.3,30.0,26.64,West,273,0.0,0.0,57,0.00,,,-99.99,VWS V12.07,2013-03-19 18:28:00,
2013-03-19 14:58:00,44.9,29.3,26.64,SW,224,0.0,0.0,54,0.00,,,-99.99,VWS V12.07,2013-03-19 18:58:00,
2013-03-19 15:28:00,46.0,32.1,26.62,SSW,192,0.0,0.0,58,0.00,,,-99.99,VWS V12.07,2013-03-19 19:28:00,
2013-03-19 15:58:00,46.5,29.8,26.62,SW,228,0.0,0.0,52,0.00,,,-99.99,VWS V12.07,2013-03-19 19:58:00,
2013-03-19 16:28:00,46.6,31.8,26.63,SW,225,0.0,0.0,56,0.00,,,-99.99,VWS V12.07,2013-03-19 20:28:00,
2013-03-19 16:58:00,46.1,30.4,26.63,SSW,199,0.0,0.0,54,0.00,,,-99.99,VWS V12.07,2013-03-19 20:58:00,
2013-03-19 17:28:00,45.8,27.7,26.64,SW,216,0.0,0.0,49,0.00,,,-99.99,VWS V12.07,2013-03-19 21:28:00,
2013-03-19 17:58:00,44.8,25.8,26.64,SSW,200,0.0,0.0,47,0.00,,,-99.99,VWS V12.07,2013-03-19 21:58:00,
2013-03-19 18:28:00,43.8,22.2,26.65,WSW,239,0.0,0.0,42,0.00,,,-99.99,VWS V12.07,2013-03-19 22:28:00,
2013-03-19 18:58:00,42.5,18.7,26.65,West,277,0.0,0.0,38,0.00,,,-99.99,VWS V12.07,2013-03-19 22:58:00,
2013-03-19 19:28:00,41.1,14.2,26.67,SW,234,0.0,0.0,33,0.00,,,-99.99,VWS V12.07,2013-03-19 23:28:00,
2013-03-19 19:58:00,39.8,15.0,26.68,SW,225,0.0,0.0,36,0.00,,,-99.99,VWS V12.07,2013-03-19 23:58:00,
2013-03-19 20:28:00,38.8,14.1,26.68,SW,229,0.0,0.0,36,0.00,,,-99.99,VWS V12.07,2013-03-20 00:28:00,
2013-03-19 20:58:00,38.1,14.1,26.70,SW,229,0.0,0.0,37,0.00,,,-99.99,VWS V12.07,2013-03-20 00:58:00,
2013-03-19 21:28:00,37.0,13.8,26.70,SW,229,0.0,0.0,38,0.00,,,-99.99,VWS V12.07,2013-03-20 01:28:00,
2013-03-19 22:08:00,36.1,12.4,26.70,SW,225,0.0,0.0,37,0.00,,,-99.99,VWS V12.07,2013-03-20 02:08:00,
2013-03-19 22:39:00,35.3,12.8,26.70,WNW,298,0.0,0.0,39,0.00,,,-99.99,VWS V12.07,2013-03-20 02:39:00,
2013-03-19 22:58:00,34.6,12.2,26.70,NW,306,0.0,0.0,39,0.00,,,-99.99,VWS V12.07,2013-03-20 02:58:00,
2013-03-19 23:28:00,34.1,12.9,26.71,SSW,207,0.0,0.0,41,0.00,,,-99.99,VWS V12.07,2013-03-20 03:28:00,
2013-03-19 23:58:00,33.2,12.6,26.71,SW,214,0.0,0.0,42,0.00,,,-99.99,VWS V12.07,2013-03-20 03:58:00,